Wetterdaten: Montag, 23.02.2015
Datum Zeit Temp. A. Feuchte A. Luftdruck Regen Wind Richtung Richtung Sonnenschein ET UV Solar Taupunkt Windchill Windben Empfang
23.02.2015 00:00 1,2 C 84 % 1009,0 hPa 0,0 l/m 0,0 km/h (0 Bft) S 169 0 min 0,000 mm 0,0 UV-I 0 W/m -1,2 C 1,2 C 0,0 km/h (0 Bft) 0,00 %
23.02.2015 00:15 1,2 C 84 % 1009,1 hPa 0,0 l/m 0,0 km/h (0 Bft) S 170 0 min 0,000 mm 0,0 UV-I 0 W/m -1,2 C 1,2 C 0,0 km/h (0 Bft) 0,00 %
23.02.2015 00:30 1,2 C 84 % 1009,0 hPa 0,0 l/m 0,0 km/h (0 Bft) S 170 0 min 0,000 mm 0,0 UV-I 0 W/m -1,2 C 1,2 C 0,0 km/h (0 Bft) 0,00 %
23.02.2015 00:45 1,2 C 84 % 1009,2 hPa 0,0 l/m 0,0 km/h (0 Bft) S-SW 213 0 min 0,000 mm 0,0 UV-I 0 W/m -1,2 C 1,2 C 0,0 km/h (0 Bft) 0,00 %
23.02.2015 01:00 1,2 C 84 % 1008,8 hPa 0,0 l/m 0,0 km/h (0 Bft) S 188 0 min 0,000 mm 0,0 UV-I 0 W/m -1,2 C 1,2 C 0,0 km/h (0 Bft) 0,00 %
23.02.2015 01:15 1,2 C 84 % 1008,4 hPa 0,0 l/m 0,0 km/h (0 Bft) S 186 0 min 0,000 mm 0,0 UV-I 0 W/m -1,2 C 1,2 C 0,0 km/h (0 Bft) 0,00 %
23.02.2015 01:30 1,2 C 84 % 1008,1 hPa 0,0 l/m 0,0 km/h (0 Bft) S 172 0 min 0,000 mm 0,0 UV-I 0 W/m -1,2 C 1,2 C 0,0 km/h (0 Bft) 0,00 %
23.02.2015 01:45 1,2 C 84 % 1007,8 hPa 0,0 l/m 0,0 km/h (0 Bft) S 180 0 min 0,000 mm 0,0 UV-I 0 W/m -1,2 C 1,2 C 0,0 km/h (0 Bft) 0,00 %
23.02.2015 02:00 1,1 C 84 % 1007,5 hPa 0,0 l/m 0,0 km/h (0 Bft) S-SW 205 0 min 0,000 mm 0,0 UV-I 0 W/m -1,3 C 1,1 C 0,0 km/h (0 Bft) 0,00 %
23.02.2015 02:15 1,1 C 84 % 1007,3 hPa 0,0 l/m 0,0 km/h (0 Bft) S-SW 212 0 min 0,000 mm 0,0 UV-I 0 W/m -1,3 C 1,1 C 0,0 km/h (0 Bft) 0,00 %
23.02.2015 02:30 1,1 C 84 % 1007,3 hPa 0,0 l/m 0,0 km/h (0 Bft) S-SW 200 0 min 0,000 mm 0,0 UV-I 0 W/m -1,3 C 1,1 C 0,0 km/h (0 Bft) 0,00 %
23.02.2015 02:45 1,0 C 84 % 1007,0 hPa 0,0 l/m 0,0 km/h (0 Bft) S 186 0 min 0,000 mm 0,0 UV-I 0 W/m -1,4 C 1,0 C 0,0 km/h (0 Bft) 0,00 %
23.02.2015 03:00 1,0 C 84 % 1006,8 hPa 0,0 l/m 0,0 km/h (0 Bft) S-SW 209 0 min 0,000 mm 0,0 UV-I 0 W/m -1,4 C 1,0 C 0,0 km/h (0 Bft) 0,00 %
23.02.2015 03:15 1,0 C 85 % 1006,7 hPa 0,0 l/m 0,0 km/h (0 Bft) W-SW 256 0 min 0,000 mm 0,0 UV-I 0 W/m -1,2 C 1,0 C 0,0 km/h (0 Bft) 0,00 %
23.02.2015 03:30 1,0 C 85 % 1006,4 hPa 0,0 l/m 0,0 km/h (0 Bft) S-SW 198 0 min 0,000 mm 0,0 UV-I 0 W/m -1,2 C 1,0 C 0,0 km/h (0 Bft) 0,00 %
23.02.2015 03:45 1,0 C 85 % 1006,1 hPa 0,0 l/m 0,0 km/h (0 Bft) SW 220 0 min 0,000 mm 0,0 UV-I 0 W/m -1,2 C 1,0 C 0,0 km/h (0 Bft) 0,00 %
23.02.2015 04:00 1,0 C 85 % 1006,1 hPa 0,0 l/m 0,0 km/h (0 Bft) S 177 0 min 0,000 mm 0,0 UV-I 0 W/m -1,2 C 1,0 C 0,0 km/h (0 Bft) 0,00 %
23.02.2015 04:15 1,0 C 85 % 1005,9 hPa 0,0 l/m 0,0 km/h (0 Bft) S 176 0 min 0,000 mm 0,0 UV-I 0 W/m -1,2 C 1,0 C 0,0 km/h (0 Bft) 0,00 %
23.02.2015 04:30 1,0 C 85 % 1005,8 hPa 0,0 l/m 0,0 km/h (0 Bft) S 174 0 min 0,000 mm 0,0 UV-I 0 W/m -1,2 C 1,0 C 0,0 km/h (0 Bft) 0,00 %
23.02.2015 04:45 1,0 C 85 % 1005,7 hPa 0,0 l/m 0,0 km/h (0 Bft) S 184 0 min 0,000 mm 0,0 UV-I 0 W/m -1,2 C 1,0 C 0,0 km/h (0 Bft) 0,00 %
23.02.2015 05:00 0,9 C 85 % 1005,7 hPa 0,0 l/m 0,0 km/h (0 Bft) S-SO 148 0 min 0,000 mm 0,0 UV-I 0 W/m -1,3 C 0,9 C 0,0 km/h (0 Bft) 0,00 %
23.02.2015 05:15 0,9 C 85 % 1005,3 hPa 0,0 l/m 0,7 km/h (0 Bft) S-SO 150 0 min 0,000 mm 0,0 UV-I 0 W/m -1,3 C 0,9 C 4,0 km/h (1 Bft) 0,00 %
23.02.2015 05:30 0,9 C 85 % 1005,2 hPa 0,0 l/m 0,0 km/h (0 Bft) S 181 0 min 0,000 mm 0,0 UV-I 0 W/m -1,3 C 0,9 C 0,0 km/h (0 Bft) 0,00 %
23.02.2015 05:45 0,9 C 84 % 1004,8 hPa 0,0 l/m 0,4 km/h (0 Bft) SO 136 0 min 0,000 mm 0,0 UV-I 0 W/m -1,5 C 0,9 C 4,0 km/h (1 Bft) 0,00 %
23.02.2015 06:00 0,9 C 84 % 1004,8 hPa 0,0 l/m 0,0 km/h (0 Bft) SW 227 0 min 0,000 mm 0,0 UV-I 0 W/m -1,5 C 0,9 C 0,0 km/h (0 Bft) 0,00 %
23.02.2015 06:15 0,9 C 84 % 1004,5 hPa 0,0 l/m 0,0 km/h (0 Bft) SO 143 0 min 0,000 mm 0,0 UV-I 0 W/m -1,5 C 0,9 C 0,0 km/h (0 Bft) 0,00 %
23.02.2015 06:30 0,9 C 80 % 1004,3 hPa 0,0 l/m 0,0 km/h (0 Bft) S 174 0 min 0,000 mm 0,0 UV-I 0 W/m -2,2 C 0,9 C 0,0 km/h (0 Bft) 0,00 %
23.02.2015 06:45 1,0 C 81 % 1004,3 hPa 0,0 l/m 0,0 km/h (0 Bft) S 174 0 min 0,000 mm 0,0 UV-I 0 W/m -1,9 C 1,0 C 0,0 km/h (0 Bft) 0,00 %
23.02.2015 07:00 1,0 C 82 % 1004,6 hPa 0,0 l/m 0,0 km/h (0 Bft) SW 225 0 min 0,000 mm 0,0 UV-I 0 W/m -1,7 C 1,0 C 0,0 km/h (0 Bft) 0,00 %
23.02.2015 07:15 1,0 C 83 % 1004,8 hPa 0,0 l/m 0,0 km/h (0 Bft) S 174 0 min 0,000 mm 0,0 UV-I 0 W/m -1,6 C 1,0 C 0,0 km/h (0 Bft) 0,00 %
23.02.2015 07:30 1,0 C 83 % 1004,8 hPa 0,0 l/m 0,0 km/h (0 Bft) W-SW 253 0 min 0,000 mm 0,0 UV-I 0 W/m -1,6 C 1,0 C 0,0 km/h (0 Bft) 0,00 %
23.02.2015 07:45 1,0 C 84 % 1004,7 hPa 0,0 l/m 0,0 km/h (0 Bft) SW 218 0 min 0,000 mm 0,0 UV-I 3 W/m -1,4 C 1,0 C 0,0 km/h (0 Bft) 0,00 %
23.02.2015 08:00 1,1 C 84 % 1004,7 hPa 0,0 l/m 0,0 km/h (0 Bft) SW 218 0 min 0,000 mm 0,0 UV-I 6 W/m -1,3 C 1,1 C 0,0 km/h (0 Bft) 0,00 %
23.02.2015 08:15 1,2 C 84 % 1004,5 hPa 0,0 l/m 0,0 km/h (0 Bft) SW 218 0 min 0,000 mm 0,0 UV-I 16 W/m -1,2 C 1,2 C 0,0 km/h (0 Bft) 0,00 %
23.02.2015 08:30 1,3 C 84 % 1003,8 hPa 0,0 l/m 0,0 km/h (0 Bft) SW 218 0 min 0,000 mm 1,0 UV-I 28 W/m -1,1 C 1,3 C 0,0 km/h (0 Bft) 0,00 %
23.02.2015 08:45 1,4 C 83 % 1003,6 hPa 0,0 l/m 0,0 km/h (0 Bft) S 181 0 min 0,000 mm 1,0 UV-I 43 W/m -1,2 C 1,4 C 0,0 km/h (0 Bft) 0,00 %
23.02.2015 09:00 1,5 C 83 % 1003,5 hPa 0,0 l/m 0,0 km/h (0 Bft) S-SW 211 0 min 0,000 mm 1,0 UV-I 50 W/m -1,1 C 1,5 C 0,0 km/h (0 Bft) 0,00 %
23.02.2015 09:15 1,6 C 82 % 1003,2 hPa 0,0 l/m 0,0 km/h (0 Bft) S 178 0 min 0,000 mm 1,0 UV-I 71 W/m -1,1 C 1,6 C 0,0 km/h (0 Bft) 0,00 %
23.02.2015 09:30 1,8 C 81 % 1003,2 hPa 0,0 l/m 0,0 km/h (0 Bft) S-SW 198 0 min 0,000 mm 1,0 UV-I 91 W/m -1,1 C 1,8 C 0,0 km/h (0 Bft) 0,00 %
23.02.2015 09:45 2,0 C 81 % 1002,8 hPa 0,0 l/m 0,0 km/h (0 Bft) S-SW 201 0 min 0,000 mm 1,0 UV-I 88 W/m -0,9 C 2,0 C 0,0 km/h (0 Bft) 0,00 %
23.02.2015 10:00 2,6 C 82 % 1002,4 hPa 0,0 l/m 0,0 km/h (0 Bft) S-SO 156 0 min 0,000 mm 1,0 UV-I 100 W/m -0,2 C 2,6 C 0,0 km/h (0 Bft) 0,00 %
23.02.2015 10:15 2,8 C 81 % 1002,1 hPa 0,0 l/m 0,0 km/h (0 Bft) SW 214 0 min 0,000 mm 1,0 UV-I 97 W/m -0,1 C 2,8 C 0,0 km/h (0 Bft) 0,00 %
23.02.2015 10:30 2,7 C 80 % 1001,6 hPa 0,0 l/m 0,0 km/h (0 Bft) S-SW 207 0 min 0,000 mm 1,0 UV-I 107 W/m -0,4 C 2,7 C 0,0 km/h (0 Bft) 0,00 %
23.02.2015 10:45 2,9 C 79 % 1001,2 hPa 0,0 l/m 0,0 km/h (0 Bft) S-SW 196 0 min 0,000 mm 1,0 UV-I 116 W/m -0,4 C 2,9 C 0,0 km/h (0 Bft) 0,00 %
23.02.2015 11:00 3,7 C 74 % 1000,6 hPa 0,0 l/m 0,0 km/h (0 Bft) S-SO 166 0 min 0,000 mm 2,0 UV-I 150 W/m -0,5 C 3,7 C 0,0 km/h (0 Bft) 0,00 %
23.02.2015 11:15 5,1 C 64 % 1000,4 hPa 0,0 l/m 0,0 km/h (0 Bft) W-SW 253 0 min 0,000 mm 2,0 UV-I 234 W/m -1,1 C 5,1 C 0,0 km/h (0 Bft) 0,00 %
23.02.2015 11:30 4,8 C 64 % 1000,3 hPa 0,0 l/m 0,0 km/h (0 Bft) S-SO 147 0 min 0,000 mm 2,0 UV-I 187 W/m -1,4 C 4,8 C 0,0 km/h (0 Bft) 0,00 %
23.02.2015 11:45 4,4 C 66 % 999,8 hPa 0,0 l/m 0,0 km/h (0 Bft) SW 222 0 min 0,000 mm 2,0 UV-I 191 W/m -1,4 C 4,4 C 0,0 km/h (0 Bft) 0,00 %
23.02.2015 12:00 3,9 C 67 % 999,8 hPa 0,0 l/m 0,4 km/h (0 Bft) SO 128 0 min 0,000 mm 2,0 UV-I 136 W/m -1,7 C 3,9 C 4,0 km/h (1 Bft) 0,00 %
23.02.2015 12:15 3,8 C 67 % 999,4 hPa 0,0 l/m 0,0 km/h (0 Bft) S 176 0 min 0,000 mm 2,0 UV-I 131 W/m -1,8 C 3,8 C 0,0 km/h (0 Bft) 0,00 %
23.02.2015 12:30 4,3 C 66 % 999,1 hPa 0,0 l/m 0,0 km/h (0 Bft) S-SW 200 0 min 0,000 mm 2,0 UV-I 152 W/m -1,5 C 4,3 C 0,0 km/h (0 Bft) 0,00 %
23.02.2015 12:45 4,4 C 67 % 998,6 hPa 0,0 l/m 0,4 km/h (0 Bft) SO 135 0 min 0,000 mm 2,0 UV-I 180 W/m -1,2 C 4,4 C 4,0 km/h (1 Bft) 0,00 %
23.02.2015 13:00 4,9 C 66 % 998,4 hPa 0,0 l/m 3,2 km/h (1 Bft) O-NO 76 0 min 0,000 mm 2,0 UV-I 172 W/m -0,9 C 4,9 C 4,0 km/h (1 Bft) 0,00 %
23.02.2015 13:15 5,0 C 66 % 998,4 hPa 0,0 l/m 0,0 km/h (0 Bft) SO 125 0 min 0,000 mm 2,0 UV-I 175 W/m -0,8 C 5,0 C 0,0 km/h (0 Bft) 0,00 %
23.02.2015 13:30 4,5 C 68 % 998,5 hPa 0,0 l/m 4,3 km/h (1 Bft) O 97 0 min 0,000 mm 2,0 UV-I 158 W/m -0,9 C 4,5 C 7,9 km/h (2 Bft) 0,00 %
23.02.2015 13:45 4,3 C 68 % 998,0 hPa 0,0 l/m 0,0 km/h (0 Bft) O 100 0 min 0,000 mm 2,0 UV-I 102 W/m -1,1 C 4,3 C 0,0 km/h (0 Bft) 0,00 %
23.02.2015 14:00 4,8 C 68 % 997,8 hPa 0,0 l/m 0,0 km/h (0 Bft) SO 128 0 min 0,000 mm 2,0 UV-I 111 W/m -0,6 C 4,8 C 0,0 km/h (0 Bft) 0,00 %
23.02.2015 14:15 5,0 C 67 % 997,7 hPa 0,0 l/m 2,9 km/h (1 Bft) SO 132 0 min 0,000 mm 2,0 UV-I 112 W/m -0,6 C 5,0 C 4,0 km/h (1 Bft) 0,00 %
23.02.2015 14:30 5,0 C 66 % 997,5 hPa 0,0 l/m 9,7 km/h (2 Bft) O-SO 103 0 min 0,000 mm 2,0 UV-I 108 W/m -0,8 C 2,3 C 11,9 km/h (2 Bft) 0,00 %
23.02.2015 14:45 5,1 C 66 % 997,4 hPa 0,0 l/m 0,0 km/h (0 Bft) SW 227 0 min 0,000 mm 1,0 UV-I 199 W/m -0,7 C 5,1 C 0,0 km/h (0 Bft) 0,00 %
23.02.2015 15:00 5,2 C 65 % 997,3 hPa 0,0 l/m 0,0 km/h (0 Bft) SW 216 0 min 0,000 mm 1,0 UV-I 199 W/m -0,8 C 5,2 C 0,0 km/h (0 Bft) 0,00 %
23.02.2015 15:15 5,3 C 65 % 997,5 hPa 0,0 l/m 0,0 km/h (0 Bft) S 177 0 min 0,000 mm 1,0 UV-I 178 W/m -0,7 C 5,3 C 0,0 km/h (0 Bft) 0,00 %
23.02.2015 15:30 5,6 C 63 % 998,4 hPa 0,0 l/m 0,0 km/h (0 Bft) O-SO 123 0 min 0,000 mm 1,0 UV-I 132 W/m -0,9 C 5,6 C 0,0 km/h (0 Bft) 0,00 %
23.02.2015 15:45 5,7 C 64 % 998,4 hPa 0,0 l/m 0,0 km/h (0 Bft) S 187 0 min 0,000 mm 1,0 UV-I 97 W/m -0,6 C 5,7 C 0,0 km/h (0 Bft) 0,00 %
23.02.2015 16:00 5,7 C 64 % 998,6 hPa 0,0 l/m 0,0 km/h (0 Bft) S 186 0 min 0,000 mm 1,0 UV-I 94 W/m -0,6 C 5,7 C 0,0 km/h (0 Bft) 0,00 %
23.02.2015 16:15 5,7 C 63 % 998,9 hPa 0,0 l/m 0,0 km/h (0 Bft) S-SW 198 0 min 0,000 mm 1,0 UV-I 74 W/m -0,8 C 5,7 C 0,0 km/h (0 Bft) 0,00 %
23.02.2015 16:30 5,3 C 68 % 999,1 hPa 0,0 l/m 0,0 km/h (0 Bft) S-SW 207 0 min 0,000 mm 1,0 UV-I 50 W/m -0,1 C 5,3 C 0,0 km/h (0 Bft) 0,00 %
23.02.2015 16:45 5,2 C 69 % 999,2 hPa 0,0 l/m 0,0 km/h (0 Bft) SW 215 0 min 0,000 mm 0,0 UV-I 36 W/m -0,0 C 5,2 C 0,0 km/h (0 Bft) 0,00 %
23.02.2015 17:00 5,0 C 70 % 999,5 hPa 0,0 l/m 0,0 km/h (0 Bft) S 191 0 min 0,000 mm 0,0 UV-I 30 W/m -0,0 C 5,0 C 0,0 km/h (0 Bft) 0,00 %
23.02.2015 17:15 4,8 C 71 % 999,8 hPa 0,0 l/m 0,0 km/h (0 Bft) S-SW 207 0 min 0,000 mm 0,0 UV-I 5 W/m -0,0 C 4,8 C 0,0 km/h (0 Bft) 0,00 %
23.02.2015 17:30 4,6 C 72 % 1000,1 hPa 0,0 l/m 0,0 km/h (0 Bft) S-SW 194 0 min 0,000 mm 0,0 UV-I 0 W/m -0,0 C 4,6 C 0,0 km/h (0 Bft) 0,00 %
23.02.2015 17:45 4,5 C 73 % 1000,0 hPa 0,0 l/m 0,0 km/h (0 Bft) SW 221 0 min 0,000 mm 0,0 UV-I 0 W/m 0,1 C 4,5 C 0,0 km/h (0 Bft) 0,00 %
23.02.2015 18:00 4,5 C 72 % 1000,2 hPa 0,0 l/m 0,0 km/h (0 Bft) SW 216 0 min 0,000 mm 0,0 UV-I 0 W/m -0,1 C 4,5 C 0,0 km/h (0 Bft) 0,00 %
23.02.2015 18:15 5,1 C 74 % 1000,5 hPa 0,0 l/m 0,0 km/h (0 Bft) S-SW 211 0 min 0,000 mm 0,0 UV-I 0 W/m 0,9 C 5,1 C 0,0 km/h (0 Bft) 0,00 %
23.02.2015 18:30 5,2 C 78 % 1000,5 hPa 0,0 l/m 0,4 km/h (0 Bft) W-SW 251 0 min 0,000 mm 0,0 UV-I 0 W/m 1,7 C 5,2 C 4,0 km/h (1 Bft) 0,00 %
23.02.2015 18:45 5,3 C 80 % 1000,7 hPa 0,0 l/m 0,0 km/h (0 Bft) S-SW 197 0 min 0,000 mm 0,0 UV-I 0 W/m 2,1 C 5,3 C 0,0 km/h (0 Bft) 0,00 %
23.02.2015 19:00 5,2 C 81 % 1000,7 hPa 0,3 l/m 0,0 km/h (0 Bft) SW 219 0 min 0,000 mm 0,0 UV-I 0 W/m 2,2 C 5,2 C 0,0 km/h (0 Bft) 0,00 %
23.02.2015 19:15 5,1 C 81 % 1000,8 hPa 0,0 l/m 0,0 km/h (0 Bft) SW 230 0 min 0,000 mm 0,0 UV-I 0 W/m 2,1 C 5,1 C 0,0 km/h (0 Bft) 0,00 %
23.02.2015 19:30 4,9 C 82 % 1000,6 hPa 0,0 l/m 0,0 km/h (0 Bft) S 187 0 min 0,000 mm 0,0 UV-I 0 W/m 2,1 C 4,9 C 0,0 km/h (0 Bft) 0,00 %
23.02.2015 19:45 4,8 C 83 % 1001,0 hPa 0,0 l/m 0,0 km/h (0 Bft) S-SW 207 0 min 0,000 mm 0,0 UV-I 0 W/m 2,2 C 4,8 C 0,0 km/h (0 Bft) 0,00 %
23.02.2015 20:00 4,7 C 83 % 1001,0 hPa 0,0 l/m 0,0 km/h (0 Bft) S-SW 207 0 min 0,000 mm 0,0 UV-I 0 W/m 2,1 C 4,7 C 0,0 km/h (0 Bft) 0,00 %
23.02.2015 20:15 4,6 C 84 % 1001,1 hPa 0,0 l/m 0,0 km/h (0 Bft) S-SW 207 0 min 0,000 mm 0,0 UV-I 0 W/m 2,1 C 4,6 C 0,0 km/h (0 Bft) 0,00 %
23.02.2015 20:30 4,5 C 84 % 1001,0 hPa 0,0 l/m 0,0 km/h (0 Bft) S-SW 207 0 min 0,000 mm 0,0 UV-I 0 W/m 2,0 C 4,5 C 0,0 km/h (0 Bft) 0,00 %
23.02.2015 20:45 4,5 C 86 % 1001,2 hPa 0,0 l/m 0,0 km/h (0 Bft) S-SW 207 0 min 0,000 mm 0,0 UV-I 0 W/m 2,4 C 4,5 C 0,0 km/h (0 Bft) 0,00 %
23.02.2015 21:00 4,4 C 86 % 1001,2 hPa 0,0 l/m 0,0 km/h (0 Bft) S-SW 207 0 min 0,000 mm 0,0 UV-I 0 W/m 2,3 C 4,4 C 0,0 km/h (0 Bft) 0,00 %
23.02.2015 21:15 4,3 C 86 % 1001,6 hPa 0,0 l/m 0,0 km/h (0 Bft) S-SW 213 0 min 0,000 mm 0,0 UV-I 0 W/m 2,2 C 4,3 C 0,0 km/h (0 Bft) 0,00 %
23.02.2015 21:30 4,1 C 87 % 1001,6 hPa 0,0 l/m 0,0 km/h (0 Bft) S-SW 192 0 min 0,000 mm 0,0 UV-I 0 W/m 2,1 C 4,1 C 0,0 km/h (0 Bft) 0,00 %
23.02.2015 21:45 4,0 C 87 % 1001,8 hPa 0,0 l/m 0,0 km/h (0 Bft) S 189 0 min 0,000 mm 0,0 UV-I 0 W/m 2,0 C 4,0 C 0,0 km/h (0 Bft) 0,00 %
23.02.2015 22:00 3,9 C 87 % 1001,8 hPa 0,3 l/m 0,0 km/h (0 Bft) O-SO 110 0 min 0,000 mm 0,0 UV-I 0 W/m 1,9 C 3,9 C 0,0 km/h (0 Bft) 0,00 %
23.02.2015 22:15 4,2 C 88 % 1002,0 hPa 0,0 l/m 0,0 km/h (0 Bft) S-SW 201 0 min 0,000 mm 0,0 UV-I 0 W/m 2,4 C 4,2 C 0,0 km/h (0 Bft) 0,00 %
23.02.2015 22:30 4,1 C 88 % 1002,1 hPa 0,3 l/m 0,0 km/h (0 Bft) SW 219 0 min 0,000 mm 0,0 UV-I 0 W/m 2,3 C 4,1 C 0,0 km/h (0 Bft) 0,00 %
23.02.2015 22:45 4,0 C 88 % 1001,8 hPa 0,3 l/m 0,0 km/h (0 Bft) S-SW 211 0 min 0,000 mm 0,0 UV-I 0 W/m 2,2 C 4,0 C 0,0 km/h (0 Bft) 0,00 %
23.02.2015 23:00 3,9 C 89 % 1002,1 hPa 0,0 l/m 0,0 km/h (0 Bft) S-SW 205 0 min 0,000 mm 0,0 UV-I 0 W/m 2,3 C 3,9 C 0,0 km/h (0 Bft) 0,00 %
23.02.2015 23:15 3,9 C 89 % 1002,2 hPa 0,0 l/m 0,0 km/h (0 Bft) S-SW 204 0 min 0,000 mm 0,0 UV-I 0 W/m 2,3 C 3,9 C 0,0 km/h (0 Bft) 0,00 %
23.02.2015 23:30 3,8 C 89 % 1002,1 hPa 0,0 l/m 0,0 km/h (0 Bft) S 188 0 min 0,000 mm 0,0 UV-I 0 W/m 2,2 C 3,8 C 0,0 km/h (0 Bft) 0,00 %
23.02.2015 23:45 3,8 C 89 % 1002,2 hPa 0,0 l/m 0,0 km/h (0 Bft) S 187 0 min 0,000 mm 0,0 UV-I 0 W/m 2,2 C 3,8 C 0,0 km/h (0 Bft) 0,00 %
_ Min-Zeit 05:00 15:30 15:00 - 00:00 - - - - - - 06:30 05:00 00:00 00:00
Minimum _ 0,9 C 63 % 997,3 hPa - 0,0 km/h (0 Bft) - - - - - - -2,2 C 0,9 C 0,0 km/h (0 Bft) 0,00 %
_ Max-Zeit 15:45 23:00 00:45 19:00 14:30 - - 00:00 00:00 11:00 11:15 22:15 15:45 14:30 00:00
Maximum _ 5,7 C 89 % 1009,2 hPa 0,3 l/m 9,7 km/h
O-SO (2 Bft)
- - 0 min 0,000 mm 2,0 UV-I 234 W/m 2,4 C 5,7 C 11,9 km/h
O-SO (2 Bft)
0,00 %
Durchschnitt _ 3,1 C 79 % 1002,5 hPa #1,2 l/m 0,2 km/h (0 Bft) O-NO - #0 min. #0,000 mm 1,5 UV-I 108 W/m -0,3 C 3,1 C 0,5 km/h (0 Bft) 0,00 %